Aérodrome :
LOGIN :

S'inscrire | Disclaimer

   EN    FR    IT 

 










Légende :    VFR   VFR Marginal   IFR   IFR Intensif   IFR Très Intensif
Visi : 
Plafond : 
>= 8 km
>= 3000ft
5 à 8 km
1000 à 3000 ft
1500m à 5 km
500 à 1000 ft
800 à 1500m
200 à 500 ft
< 800m
< 200 ft
Symboles :   Orages  Brouillard  Fortes neiges  Fortes précipitations  Vent > 20 kt
SIGMETs :   Divers  Orages  Givrage  Turbulence  Onde Orograph.  Cendres Volcan.







- Altitude de l'aérodrome : 290 ft
- Code IATA : OSI


LDOS - Osijek

DERNIER METAR :
  • 180630Z 18004KT 4000 BR NSC M01/M02 Q1025

METARs EXPIRÉS :
  • 180600Z 17005KT 5000 BR NSC M02/M03 Q1025
  • 180530Z 15004KT 7000 NSC M02/M03 Q1025
  • 180500Z 12005KT CAVOK M02/M03 Q1025
  • 180430Z 10005KT CAVOK M02/M03 Q1025
  • 180400Z 09005KT CAVOK M02/M03 Q1025

TAF TAF LDOS
Valide du 18 à 06h jusqu'au 19 à 06h UTC


180525Z 1806/1906 12005KT CAVOK TX14/1813Z TNM02/1806Z
TEMPO 1806/1809 2000 BR
PROB40
TEMPO 1903/1906 4000 BR
Pas de NOTAMs connus pour ce terrain.



MET'MAP, la Météo Aéronautique d'un coup d'oeil ! - Copyright ORBIFLY Décembre 2007 - Disclaimer

ORBIFLY MET'MAP TEAM :

Programmation & Développement : Alexandra Zaïnal
Conception & Développement : Baudouin d'Aumeries
Co-Programmation & Développement : Marc-Olivier Méhu
Soutien technique & logistique : Manuel Goepfert

Contact : metmap@orbifly.com




SOURCES & CREDITS :

   NOAA